Terminal Aerodrome Forecast
Issued by NWS Shreveport, LA

Home | Current Version | Previous Version | Text Only | Print | Product List | Glossary On
Versions: 1 2 3 4 5 6 7 8 9 10 11 12 13 14 15 16 17 18 19 20 21 22 23
000
FTUS44 KSHV 290538
TAFSHV
TAF
KSHV 290538Z 2906/3006 14004KT P6SM FEW040 SCT250 WS010/16020KT
     FM290900 20004KT 5SM BR SCT040 BKN250
      TEMPO 2910/2912 00000KT 3SM BR BKN010
     FM291200 24006KT 5SM BR SCT015 BKN025
      TEMPO 2912/2915 6SM BR BKN015
     FM291500 34005KT P6SM BKN035
     FM292100 05006KT P6SM SCT050 BKN250=

USA.gov is the U.S. government's official web portal to all federal, state and local government web resources and services.